sensor_id;sensor_type;location;lat;lon;timestamp;P1;durP1;ratioP1;P2;durP2;ratioP2
14125;SDS011;7141;49.484;11.242;2022-09-01T00:00:47;5.37;;;4.87;;
14125;SDS011;7141;49.484;11.242;2022-09-01T00:03:18;5.67;;;5.07;;
14125;SDS011;7141;49.484;11.242;2022-09-01T00:05:45;5.47;;;4.83;;
14125;SDS011;7141;49.484;11.242;2022-09-01T00:08:15;5.20;;;4.60;;
14125;SDS011;7141;49.484;11.242;2022-09-01T00:10:41;5.57;;;4.87;;
14125;SDS011;7141;49.484;11.242;2022-09-01T00:13:07;6.27;;;5.10;;
14125;SDS011;7141;49.484;11.242;2022-09-01T00:15:33;6.37;;;4.60;;
14125;SDS011;7141;49.484;11.242;2022-09-01T00:18:00;7.67;;;4.80;;
14125;SDS011;7141;49.484;11.242;2022-09-01T00:20:26;5.90;;;5.40;;
14125;SDS011;7141;49.484;11.242;2022-09-01T00:22:52;5.37;;;4.87;;
14125;SDS011;7141;49.484;11.242;2022-09-01T00:25:19;5.77;;;5.00;;
14125;SDS011;7141;49.484;11.242;2022-09-01T00:27:47;5.20;;;4.70;;
14125;SDS011;7141;49.484;11.242;2022-09-01T00:30:13;6.70;;;5.13;;
14125;SDS011;7141;49.484;11.242;2022-09-01T00:32:40;7.13;;;5.10;;
14125;SDS011;7141;49.484;11.242;2022-09-01T00:35:10;5.83;;;5.17;;
14125;SDS011;7141;49.484;11.242;2022-09-01T00:37:36;7.57;;;5.40;;
14125;SDS011;7141;49.484;11.242;2022-09-01T00:40:02;6.73;;;5.37;;
14125;SDS011;7141;49.484;11.242;2022-09-01T00:42:29;8.57;;;6.23;;
14125;SDS011;7141;49.484;11.242;2022-09-01T00:44:55;6.00;;;5.50;;
14125;SDS011;7141;49.484;11.242;2022-09-01T00:47:21;8.27;;;5.43;;
14125;SDS011;7141;49.484;11.242;2022-09-01T00:49:47;5.30;;;4.90;;
14125;SDS011;7141;49.484;11.242;2022-09-01T00:54:50;5.53;;;4.93;;
14125;SDS011;7141;49.484;11.242;2022-09-01T00:57:17;7.57;;;5.80;;
14125;SDS011;7141;49.484;11.242;2022-09-01T00:59:48;6.00;;;5.43;;
14125;SDS011;7141;49.484;11.242;2022-09-01T01:02:16;7.63;;;5.57;;
14125;SDS011;7141;49.484;11.242;2022-09-01T01:04:42;6.00;;;5.40;;
14125;SDS011;7141;49.484;11.242;2022-09-01T01:07:08;6.10;;;5.47;;
14125;SDS011;7141;49.484;11.242;2022-09-01T01:09:38;8.70;;;5.87;;
14125;SDS011;7141;49.484;11.242;2022-09-01T01:12:05;6.73;;;6.13;;
14125;SDS011;7141;49.484;11.242;2022-09-01T01:14:33;6.60;;;5.80;;
14125;SDS011;7141;49.484;11.242;2022-09-01T01:17:01;7.33;;;6.07;;
14125;SDS011;7141;49.484;11.242;2022-09-01T01:22:28;9.33;;;5.83;;
14125;SDS011;7141;49.484;11.242;2022-09-01T01:25:14;8.27;;;6.10;;
14125;SDS011;7141;49.484;11.242;2022-09-01T01:27:43;7.13;;;5.73;;
14125;SDS011;7141;49.484;11.242;2022-09-01T01:30:10;6.10;;;5.43;;
14125;SDS011;7141;49.484;11.242;2022-09-01T01:32:37;7.97;;;5.70;;
14125;SDS011;7141;49.484;11.242;2022-09-01T01:35:12;7.37;;;6.63;;
14125;SDS011;7141;49.484;11.242;2022-09-01T01:37:40;5.93;;;5.43;;
14125;SDS011;7141;49.484;11.242;2022-09-01T01:40:09;6.83;;;5.70;;
14125;SDS011;7141;49.484;11.242;2022-09-01T01:42:41;7.63;;;5.80;;
14125;SDS011;7141;49.484;11.242;2022-09-01T01:45:08;6.67;;;5.90;;
14125;SDS011;7141;49.484;11.242;2022-09-01T01:47:36;6.13;;;5.50;;
14125;SDS011;7141;49.484;11.242;2022-09-01T01:50:02;5.80;;;5.30;;
14125;SDS011;7141;49.484;11.242;2022-09-01T01:52:33;6.33;;;5.43;;
14125;SDS011;7141;49.484;11.242;2022-09-01T01:54:59;7.73;;;5.13;;
14125;SDS011;7141;49.484;11.242;2022-09-01T01:57:26;5.87;;;5.27;;
14125;SDS011;7141;49.484;11.242;2022-09-01T01:59:59;8.37;;;6.33;;
14125;SDS011;7141;49.484;11.242;2022-09-01T02:02:25;7.03;;;5.63;;
14125;SDS011;7141;49.484;11.242;2022-09-01T02:04:51;6.87;;;5.33;;
14125;SDS011;7141;49.484;11.242;2022-09-01T02:07:18;6.43;;;5.47;;
14125;SDS011;7141;49.484;11.242;2022-09-01T02:09:44;6.97;;;5.47;;
14125;SDS011;7141;49.484;11.242;2022-09-01T02:12:12;6.97;;;6.27;;
14125;SDS011;7141;49.484;11.242;2022-09-01T02:14:43;8.40;;;5.50;;
14125;SDS011;7141;49.484;11.242;2022-09-01T02:17:08;5.90;;;5.30;;
14125;SDS011;7141;49.484;11.242;2022-09-01T02:19:34;7.83;;;6.50;;
14125;SDS011;7141;49.484;11.242;2022-09-01T02:22:06;6.03;;;5.43;;
14125;SDS011;7141;49.484;11.242;2022-09-01T02:24:34;6.67;;;5.80;;
14125;SDS011;7141;49.484;11.242;2022-09-01T02:27:00;7.03;;;6.10;;
14125;SDS011;7141;49.484;11.242;2022-09-01T02:29:27;8.10;;;6.20;;
14125;SDS011;7141;49.484;11.242;2022-09-01T02:31:53;6.30;;;5.70;;
14125;SDS011;7141;49.484;11.242;2022-09-01T02:34:20;6.40;;;5.87;;
14125;SDS011;7141;49.484;11.242;2022-09-01T02:36:49;9.27;;;6.20;;
14125;SDS011;7141;49.484;11.242;2022-09-01T02:39:20;6.60;;;5.90;;
14125;SDS011;7141;49.484;11.242;2022-09-01T02:41:47;6.40;;;5.60;;
14125;SDS011;7141;49.484;11.242;2022-09-01T02:44:13;7.37;;;6.53;;
14125;SDS011;7141;49.484;11.242;2022-09-01T02:46:41;9.23;;;5.83;;
14125;SDS011;7141;49.484;11.242;2022-09-01T02:49:11;6.70;;;6.03;;
14125;SDS011;7141;49.484;11.242;2022-09-01T02:51:44;7.20;;;5.87;;
14125;SDS011;7141;49.484;11.242;2022-09-01T02:54:11;6.93;;;6.33;;
14125;SDS011;7141;49.484;11.242;2022-09-01T02:56:42;6.03;;;5.53;;
14125;SDS011;7141;49.484;11.242;2022-09-01T02:59:12;6.43;;;5.83;;
14125;SDS011;7141;49.484;11.242;2022-09-01T03:01:39;6.70;;;6.10;;
14125;SDS011;7141;49.484;11.242;2022-09-01T03:04:06;6.73;;;6.13;;
14125;SDS011;7141;49.484;11.242;2022-09-01T03:06:34;7.30;;;6.17;;
14125;SDS011;7141;49.484;11.242;2022-09-01T03:09:02;7.73;;;6.43;;
14125;SDS011;7141;49.484;11.242;2022-09-01T03:11:30;9.43;;;6.70;;
14125;SDS011;7141;49.484;11.242;2022-09-01T03:13:56;8.47;;;6.10;;
14125;SDS011;7141;49.484;11.242;2022-09-01T03:16:22;8.03;;;6.90;;
14125;SDS011;7141;49.484;11.242;2022-09-01T03:18:49;6.63;;;5.63;;
14125;SDS011;7141;49.484;11.242;2022-09-01T03:21:15;7.03;;;6.33;;
14125;SDS011;7141;49.484;11.242;2022-09-01T03:23:42;7.77;;;6.87;;
14125;SDS011;7141;49.484;11.242;2022-09-01T03:26:08;7.10;;;6.40;;
14125;SDS011;7141;49.484;11.242;2022-09-01T03:28:34;7.27;;;6.57;;
14125;SDS011;7141;49.484;11.242;2022-09-01T03:31:04;7.57;;;6.73;;
14125;SDS011;7141;49.484;11.242;2022-09-01T03:33:30;9.43;;;7.23;;
14125;SDS011;7141;49.484;11.242;2022-09-01T03:35:56;6.87;;;6.30;;
14125;SDS011;7141;49.484;11.242;2022-09-01T03:38:23;7.40;;;6.60;;
14125;SDS011;7141;49.484;11.242;2022-09-01T03:40:51;9.07;;;6.40;;
14125;SDS011;7141;49.484;11.242;2022-09-01T03:43:17;7.20;;;6.50;;
14125;SDS011;7141;49.484;11.242;2022-09-01T03:45:47;6.80;;;6.07;;
14125;SDS011;7141;49.484;11.242;2022-09-01T03:48:13;6.90;;;6.30;;
14125;SDS011;7141;49.484;11.242;2022-09-01T03:50:40;8.37;;;6.10;;
14125;SDS011;7141;49.484;11.242;2022-09-01T03:53:10;7.20;;;6.50;;
14125;SDS011;7141;49.484;11.242;2022-09-01T03:55:37;7.00;;;6.23;;
14125;SDS011;7141;49.484;11.242;2022-09-01T03:58:04;10.77;;;6.53;;
14125;SDS011;7141;49.484;11.242;2022-09-01T04:00:31;6.80;;;6.10;;
14125;SDS011;7141;49.484;11.242;2022-09-01T04:03:00;9.73;;;5.63;;
14125;SDS011;7141;49.484;11.242;2022-09-01T04:05:27;7.80;;;5.83;;
14125;SDS011;7141;49.484;11.242;2022-09-01T04:07:54;8.17;;;6.17;;
14125;SDS011;7141;49.484;11.242;2022-09-01T04:10:21;6.90;;;6.23;;
14125;SDS011;7141;49.484;11.242;2022-09-01T04:12:47;7.00;;;6.03;;
14125;SDS011;7141;49.484;11.242;2022-09-01T04:15:15;6.77;;;6.17;;
14125;SDS011;7141;49.484;11.242;2022-09-01T04:17:42;8.63;;;6.43;;
14125;SDS011;7141;49.484;11.242;2022-09-01T04:20:27;8.10;;;6.30;;
14125;SDS011;7141;49.484;11.242;2022-09-01T04:22:53;6.73;;;5.90;;
14125;SDS011;7141;49.484;11.242;2022-09-01T04:25:21;8.40;;;6.40;;
14125;SDS011;7141;49.484;11.242;2022-09-01T04:27:49;12.07;;;5.97;;
14125;SDS011;7141;49.484;11.242;2022-09-01T04:30:19;7.40;;;6.20;;
14125;SDS011;7141;49.484;11.242;2022-09-01T04:32:48;6.43;;;5.83;;
14125;SDS011;7141;49.484;11.242;2022-09-01T04:35:16;8.03;;;6.30;;
14125;SDS011;7141;49.484;11.242;2022-09-01T04:37:43;6.90;;;5.90;;
14125;SDS011;7141;49.484;11.242;2022-09-01T04:40:11;7.40;;;5.57;;
14125;SDS011;7141;49.484;11.242;2022-09-01T04:42:38;7.97;;;5.80;;
14125;SDS011;7141;49.484;11.242;2022-09-01T04:45:05;6.70;;;6.00;;
14125;SDS011;7141;49.484;11.242;2022-09-01T04:47:34;7.07;;;5.57;;
14125;SDS011;7141;49.484;11.242;2022-09-01T04:50:06;7.13;;;6.03;;
14125;SDS011;7141;49.484;11.242;2022-09-01T04:52:38;6.33;;;5.53;;
14125;SDS011;7141;49.484;11.242;2022-09-01T04:55:05;7.43;;;5.53;;
14125;SDS011;7141;49.484;11.242;2022-09-01T04:57:32;6.20;;;5.70;;
14125;SDS011;7141;49.484;11.242;2022-09-01T04:59:59;6.17;;;5.67;;
14125;SDS011;7141;49.484;11.242;2022-09-01T05:02:25;6.47;;;5.87;;
14125;SDS011;7141;49.484;11.242;2022-09-01T05:04:52;9.43;;;5.97;;
14125;SDS011;7141;49.484;11.242;2022-09-01T05:07:20;6.43;;;5.80;;
14125;SDS011;7141;49.484;11.242;2022-09-01T05:09:47;8.20;;;5.93;;
14125;SDS011;7141;49.484;11.242;2022-09-01T05:12:13;6.63;;;5.93;;
14125;SDS011;7141;49.484;11.242;2022-09-01T05:14:41;6.77;;;6.07;;
14125;SDS011;7141;49.484;11.242;2022-09-01T05:17:08;8.83;;;5.30;;
14125;SDS011;7141;49.484;11.242;2022-09-01T05:19:42;6.07;;;5.47;;
14125;SDS011;7141;49.484;11.242;2022-09-01T05:22:09;7.67;;;5.37;;
14125;SDS011;7141;49.484;11.242;2022-09-01T05:24:35;5.13;;;4.67;;
14125;SDS011;7141;49.484;11.242;2022-09-01T05:27:04;7.00;;;4.80;;
14125;SDS011;7141;49.484;11.242;2022-09-01T05:29:30;5.43;;;4.43;;
14125;SDS011;7141;49.484;11.242;2022-09-01T05:31:58;6.03;;;4.83;;
14125;SDS011;7141;49.484;11.242;2022-09-01T05:34:32;4.73;;;4.27;;
14125;SDS011;7141;49.484;11.242;2022-09-01T05:37:01;5.70;;;4.40;;
14125;SDS011;7141;49.484;11.242;2022-09-01T05:39:27;5.47;;;4.30;;
14125;SDS011;7141;49.484;11.242;2022-09-01T05:41:53;4.93;;;4.43;;
14125;SDS011;7141;49.484;11.242;2022-09-01T05:44:20;7.67;;;4.33;;
14125;SDS011;7141;49.484;11.242;2022-09-01T05:46:49;4.60;;;4.20;;
14125;SDS011;7141;49.484;11.242;2022-09-01T05:49:17;6.33;;;4.10;;
14125;SDS011;7141;49.484;11.242;2022-09-01T05:51:48;4.40;;;4.00;;
14125;SDS011;7141;49.484;11.242;2022-09-01T05:54:16;5.53;;;3.93;;
14125;SDS011;7141;49.484;11.242;2022-09-01T05:56:42;4.10;;;3.70;;
14125;SDS011;7141;49.484;11.242;2022-09-01T05:59:09;6.50;;;4.33;;
14125;SDS011;7141;49.484;11.242;2022-09-01T06:01:35;4.77;;;4.07;;
14125;SDS011;7141;49.484;11.242;2022-09-01T06:04:05;4.73;;;3.93;;
14125;SDS011;7141;49.484;11.242;2022-09-01T06:06:42;5.10;;;3.93;;
14125;SDS011;7141;49.484;11.242;2022-09-01T06:09:11;12.80;;;4.33;;
14125;SDS011;7141;49.484;11.242;2022-09-01T06:11:37;6.63;;;4.10;;
14125;SDS011;7141;49.484;11.242;2022-09-01T06:14:05;4.70;;;3.53;;
14125;SDS011;7141;49.484;11.242;2022-09-01T06:16:35;4.87;;;3.90;;
14125;SDS011;7141;49.484;11.242;2022-09-01T06:19:01;3.83;;;3.50;;
14125;SDS011;7141;49.484;11.242;2022-09-01T06:21:27;5.03;;;3.60;;
14125;SDS011;7141;49.484;11.242;2022-09-01T06:23:55;7.10;;;3.50;;
14125;SDS011;7141;49.484;11.242;2022-09-01T06:26:23;5.50;;;3.50;;
14125;SDS011;7141;49.484;11.242;2022-09-01T06:28:52;4.50;;;3.70;;
14125;SDS011;7141;49.484;11.242;2022-09-01T06:31:23;7.07;;;3.50;;
14125;SDS011;7141;49.484;11.242;2022-09-01T06:33:52;7.50;;;3.57;;
14125;SDS011;7141;49.484;11.242;2022-09-01T06:36:19;7.67;;;3.30;;
14125;SDS011;7141;49.484;11.242;2022-09-01T06:38:46;6.53;;;3.60;;
14125;SDS011;7141;49.484;11.242;2022-09-01T06:41:12;3.73;;;3.10;;
14125;SDS011;7141;49.484;11.242;2022-09-01T06:43:39;3.53;;;3.17;;
14125;SDS011;7141;49.484;11.242;2022-09-01T06:46:06;5.57;;;3.23;;
14125;SDS011;7141;49.484;11.242;2022-09-01T06:48:33;6.73;;;3.03;;
14125;SDS011;7141;49.484;11.242;2022-09-01T06:51:00;4.83;;;3.10;;
14125;SDS011;7141;49.484;11.242;2022-09-01T06:53:29;4.87;;;3.23;;
14125;SDS011;7141;49.484;11.242;2022-09-01T06:55:58;3.63;;;3.23;;
14125;SDS011;7141;49.484;11.242;2022-09-01T06:58:24;4.13;;;2.90;;
14125;SDS011;7141;49.484;11.242;2022-09-01T07:00:50;6.40;;;4.00;;
14125;SDS011;7141;49.484;11.242;2022-09-01T07:03:16;6.20;;;3.47;;
14125;SDS011;7141;49.484;11.242;2022-09-01T07:05:44;3.50;;;3.10;;
14125;SDS011;7141;49.484;11.242;2022-09-01T07:08:12;4.13;;;3.33;;
14125;SDS011;7141;49.484;11.242;2022-09-01T07:10:46;3.33;;;2.90;;
14125;SDS011;7141;49.484;11.242;2022-09-01T07:13:14;4.03;;;3.20;;
14125;SDS011;7141;49.484;11.242;2022-09-01T07:15:46;3.70;;;3.00;;
14125;SDS011;7141;49.484;11.242;2022-09-01T07:18:13;3.90;;;3.07;;
14125;SDS011;7141;49.484;11.242;2022-09-01T07:20:41;6.70;;;3.27;;
14125;SDS011;7141;49.484;11.242;2022-09-01T07:23:08;3.70;;;3.20;;
14125;SDS011;7141;49.484;11.242;2022-09-01T07:25:39;4.67;;;3.20;;
14125;SDS011;7141;49.484;11.242;2022-09-01T07:28:06;6.47;;;2.93;;
14125;SDS011;7141;49.484;11.242;2022-09-01T07:30:32;5.60;;;2.83;;
14125;SDS011;7141;49.484;11.242;2022-09-01T07:32:59;3.80;;;2.90;;
14125;SDS011;7141;49.484;11.242;2022-09-01T07:35:25;5.40;;;3.00;;
14125;SDS011;7141;49.484;11.242;2022-09-01T07:37:51;5.97;;;3.30;;
14125;SDS011;7141;49.484;11.242;2022-09-01T07:40:19;6.30;;;3.50;;
14125;SDS011;7141;49.484;11.242;2022-09-01T07:42:46;5.03;;;3.07;;
14125;SDS011;7141;49.484;11.242;2022-09-01T07:45:13;4.43;;;2.97;;
14125;SDS011;7141;49.484;11.242;2022-09-01T07:47:41;7.93;;;3.43;;
14125;SDS011;7141;49.484;11.242;2022-09-01T07:50:09;5.93;;;3.27;;
14125;SDS011;7141;49.484;11.242;2022-09-01T07:52:39;8.43;;;3.30;;
14125;SDS011;7141;49.484;11.242;2022-09-01T07:55:09;4.70;;;3.40;;
14125;SDS011;7141;49.484;11.242;2022-09-01T07:57:36;4.17;;;2.97;;
14125;SDS011;7141;49.484;11.242;2022-09-01T08:00:03;4.47;;;3.10;;
14125;SDS011;7141;49.484;11.242;2022-09-01T08:02:29;5.43;;;3.57;;
14125;SDS011;7141;49.484;11.242;2022-09-01T08:04:57;5.10;;;3.10;;
14125;SDS011;7141;49.484;11.242;2022-09-01T08:07:23;4.97;;;3.40;;
14125;SDS011;7141;49.484;11.242;2022-09-01T08:09:49;5.17;;;3.20;;
14125;SDS011;7141;49.484;11.242;2022-09-01T08:12:15;4.63;;;3.30;;
14125;SDS011;7141;49.484;11.242;2022-09-01T08:14:42;4.43;;;3.00;;
14125;SDS011;7141;49.484;11.242;2022-09-01T08:17:08;7.93;;;2.80;;
14125;SDS011;7141;49.484;11.242;2022-09-01T08:19:34;6.07;;;3.27;;
14125;SDS011;7141;49.484;11.242;2022-09-01T08:22:01;5.37;;;3.00;;
14125;SDS011;7141;49.484;11.242;2022-09-01T08:24:27;4.77;;;2.97;;
14125;SDS011;7141;49.484;11.242;2022-09-01T08:26:53;4.47;;;3.07;;
14125;SDS011;7141;49.484;11.242;2022-09-01T08:29:19;6.27;;;3.33;;
14125;SDS011;7141;49.484;11.242;2022-09-01T08:31:45;3.83;;;3.10;;
14125;SDS011;7141;49.484;11.242;2022-09-01T08:34:11;4.57;;;2.97;;
14125;SDS011;7141;49.484;11.242;2022-09-01T08:36:37;5.17;;;2.83;;
14125;SDS011;7141;49.484;11.242;2022-09-01T08:39:03;3.67;;;2.93;;
14125;SDS011;7141;49.484;11.242;2022-09-01T08:46:41;4.90;;;3.43;;
14125;SDS011;7141;49.484;11.242;2022-09-01T08:49:11;4.47;;;2.97;;
14125;SDS011;7141;49.484;11.242;2022-09-01T08:51:40;4.10;;;3.10;;
14125;SDS011;7141;49.484;11.242;2022-09-01T08:56:44;5.23;;;3.10;;
14125;SDS011;7141;49.484;11.242;2022-09-01T08:59:11;3.43;;;2.90;;
14125;SDS011;7141;49.484;11.242;2022-09-01T09:07:09;2.63;;;2.20;;
14125;SDS011;7141;49.484;11.242;2022-09-01T09:09:44;8.87;;;3.03;;
14125;SDS011;7141;49.484;11.242;2022-09-01T09:17:26;3.77;;;2.43;;
14125;SDS011;7141;49.484;11.242;2022-09-01T09:19:54;5.03;;;3.13;;
14125;SDS011;7141;49.484;11.242;2022-09-01T09:22:20;3.13;;;2.70;;
14125;SDS011;7141;49.484;11.242;2022-09-01T09:27:19;3.40;;;2.70;;
14125;SDS011;7141;49.484;11.242;2022-09-01T09:29:49;3.70;;;2.37;;
14125;SDS011;7141;49.484;11.242;2022-09-01T09:32:17;3.50;;;2.47;;
14125;SDS011;7141;49.484;11.242;2022-09-01T09:34:44;2.60;;;2.37;;
14125;SDS011;7141;49.484;11.242;2022-09-01T09:37:18;4.20;;;2.97;;
14125;SDS011;7141;49.484;11.242;2022-09-01T09:39:58;3.00;;;2.40;;
14125;SDS011;7141;49.484;11.242;2022-09-01T09:42:26;3.13;;;2.63;;
14125;SDS011;7141;49.484;11.242;2022-09-01T09:44:52;4.60;;;2.57;;
14125;SDS011;7141;49.484;11.242;2022-09-01T09:50:33;3.10;;;2.27;;
14125;SDS011;7141;49.484;11.242;2022-09-01T09:52:52;3.23;;;2.47;;
14125;SDS011;7141;49.484;11.242;2022-09-01T09:55:21;4.33;;;2.67;;
14125;SDS011;7141;49.484;11.242;2022-09-01T09:57:47;2.90;;;2.43;;
14125;SDS011;7141;49.484;11.242;2022-09-01T10:00:22;4.00;;;2.40;;
14125;SDS011;7141;49.484;11.242;2022-09-01T10:02:58;7.90;;;2.63;;
14125;SDS011;7141;49.484;11.242;2022-09-01T10:08:58;2.90;;;2.60;;
14125;SDS011;7141;49.484;11.242;2022-09-01T10:11:01;2.30;;;2.10;;
14125;SDS011;7141;49.484;11.242;2022-09-01T10:13:27;4.37;;;2.57;;
14125;SDS011;7141;49.484;11.242;2022-09-01T10:15:58;3.37;;;2.33;;
14125;SDS011;7141;49.484;11.242;2022-09-01T10:18:26;3.93;;;2.50;;
14125;SDS011;7141;49.484;11.242;2022-09-01T10:21:14;6.60;;;2.73;;
14125;SDS011;7141;49.484;11.242;2022-09-01T10:23:41;4.17;;;2.17;;
14125;SDS011;7141;49.484;11.242;2022-09-01T10:26:23;2.23;;;2.03;;
14125;SDS011;7141;49.484;11.242;2022-09-01T10:28:54;3.87;;;2.20;;
14125;SDS011;7141;49.484;11.242;2022-09-01T10:31:23;3.73;;;2.50;;
14125;SDS011;7141;49.484;11.242;2022-09-01T10:33:49;3.30;;;2.10;;
14125;SDS011;7141;49.484;11.242;2022-09-01T10:36:16;2.40;;;2.17;;
14125;SDS011;7141;49.484;11.242;2022-09-01T10:38:43;3.80;;;2.13;;
14125;SDS011;7141;49.484;11.242;2022-09-01T10:41:09;6.47;;;2.27;;
14125;SDS011;7141;49.484;11.242;2022-09-01T10:48:51;4.33;;;2.50;;
14125;SDS011;7141;49.484;11.242;2022-09-01T10:53:50;4.27;;;2.40;;
14125;SDS011;7141;49.484;11.242;2022-09-01T10:56:18;4.87;;;2.20;;
14125;SDS011;7141;49.484;11.242;2022-09-01T11:04:11;2.30;;;2.10;;
14125;SDS011;7141;49.484;11.242;2022-09-01T11:11:58;3.70;;;2.50;;
14125;SDS011;7141;49.484;11.242;2022-09-01T11:14:27;2.80;;;2.20;;
14125;SDS011;7141;49.484;11.242;2022-09-01T11:19:54;3.23;;;2.40;;
14125;SDS011;7141;49.484;11.242;2022-09-01T11:22:41;2.63;;;2.20;;
14125;SDS011;7141;49.484;11.242;2022-09-01T11:25:09;2.73;;;2.10;;
14125;SDS011;7141;49.484;11.242;2022-09-01T11:32:44;2.63;;;2.40;;
14125;SDS011;7141;49.484;11.242;2022-09-01T11:35:20;2.30;;;1.93;;
14125;SDS011;7141;49.484;11.242;2022-09-01T11:37:48;2.67;;;2.27;;
14125;SDS011;7141;49.484;11.242;2022-09-01T11:40:22;3.23;;;2.60;;
14125;SDS011;7141;49.484;11.242;2022-09-01T11:42:48;4.70;;;2.20;;
14125;SDS011;7141;49.484;11.242;2022-09-01T11:45:18;2.83;;;2.27;;
14125;SDS011;7141;49.484;11.242;2022-09-01T11:47:46;3.00;;;2.50;;
14125;SDS011;7141;49.484;11.242;2022-09-01T11:52:50;2.50;;;2.30;;
14125;SDS011;7141;49.484;11.242;2022-09-01T11:55:26;2.47;;;2.27;;
14125;SDS011;7141;49.484;11.242;2022-09-01T11:57:52;2.00;;;1.80;;
14125;SDS011;7141;49.484;11.242;2022-09-01T12:00:24;2.20;;;2.00;;
14125;SDS011;7141;49.484;11.242;2022-09-01T12:02:50;3.30;;;2.00;;
14125;SDS011;7141;49.484;11.242;2022-09-01T12:07:51;2.47;;;2.00;;
14125;SDS011;7141;49.484;11.242;2022-09-01T12:10:18;3.00;;;2.70;;
14125;SDS011;7141;49.484;11.242;2022-09-01T12:12:45;4.53;;;2.40;;
14125;SDS011;7141;49.484;11.242;2022-09-01T12:17:43;4.13;;;2.60;;
14125;SDS011;7141;49.484;11.242;2022-09-01T12:22:50;4.93;;;1.92;;
14125;SDS011;7141;49.484;11.242;2022-09-01T12:25:21;4.07;;;2.90;;
14125;SDS011;7141;49.484;11.242;2022-09-01T12:27:47;4.17;;;2.10;;
14125;SDS011;7141;49.484;11.242;2022-09-01T12:30:13;2.87;;;2.20;;
14125;SDS011;7141;49.484;11.242;2022-09-01T12:32:40;2.57;;;2.00;;
14125;SDS011;7141;49.484;11.242;2022-09-01T12:35:13;3.07;;;2.13;;
14125;SDS011;7141;49.484;11.242;2022-09-01T12:37:40;2.10;;;1.90;;
14125;SDS011;7141;49.484;11.242;2022-09-01T12:40:06;2.30;;;2.10;;
14125;SDS011;7141;49.484;11.242;2022-09-01T12:42:49;2.83;;;1.90;;
14125;SDS011;7141;49.484;11.242;2022-09-01T12:45:34;2.42;;;2.17;;
14125;SDS011;7141;49.484;11.242;2022-09-01T12:48:00;3.67;;;2.17;;
14125;SDS011;7141;49.484;11.242;2022-09-01T12:52:54;2.57;;;2.00;;
14125;SDS011;7141;49.484;11.242;2022-09-01T12:55:23;2.40;;;2.20;;
14125;SDS011;7141;49.484;11.242;2022-09-01T12:57:50;2.13;;;2.00;;
14125;SDS011;7141;49.484;11.242;2022-09-01T13:00:18;2.97;;;2.30;;
14125;SDS011;7141;49.484;11.242;2022-09-01T13:02:49;2.97;;;2.20;;
14125;SDS011;7141;49.484;11.242;2022-09-01T13:07:51;10.67;;;2.37;;
14125;SDS011;7141;49.484;11.242;2022-09-01T13:10:18;4.17;;;2.33;;
14125;SDS011;7141;49.484;11.242;2022-09-01T13:12:44;5.20;;;2.40;;
14125;SDS011;7141;49.484;11.242;2022-09-01T13:15:10;3.00;;;2.40;;
14125;SDS011;7141;49.484;11.242;2022-09-01T13:17:36;2.73;;;2.30;;
14125;SDS011;7141;49.484;11.242;2022-09-01T13:20:03;2.87;;;2.40;;
14125;SDS011;7141;49.484;11.242;2022-09-01T13:22:29;4.50;;;2.27;;
14125;SDS011;7141;49.484;11.242;2022-09-01T13:24:55;3.70;;;2.30;;
14125;SDS011;7141;49.484;11.242;2022-09-01T13:27:21;3.20;;;2.37;;
14125;SDS011;7141;49.484;11.242;2022-09-01T13:29:48;2.70;;;2.20;;
14125;SDS011;7141;49.484;11.242;2022-09-01T13:32:14;2.97;;;2.50;;
14125;SDS011;7141;49.484;11.242;2022-09-01T13:34:41;2.77;;;2.57;;
14125;SDS011;7141;49.484;11.242;2022-09-01T13:37:07;5.83;;;2.63;;
14125;SDS011;7141;49.484;11.242;2022-09-01T13:39:33;2.80;;;2.50;;
14125;SDS011;7141;49.484;11.242;2022-09-01T13:41:59;3.40;;;2.00;;
14125;SDS011;7141;49.484;11.242;2022-09-01T13:44:25;3.63;;;2.40;;
14125;SDS011;7141;49.484;11.242;2022-09-01T13:46:51;2.33;;;2.13;;
14125;SDS011;7141;49.484;11.242;2022-09-01T13:49:17;2.20;;;2.00;;
14125;SDS011;7141;49.484;11.242;2022-09-01T13:51:43;2.87;;;2.30;;
14125;SDS011;7141;49.484;11.242;2022-09-01T13:54:09;2.77;;;2.50;;
14125;SDS011;7141;49.484;11.242;2022-09-01T13:56:35;2.87;;;2.60;;
14125;SDS011;7141;49.484;11.242;2022-09-01T13:59:01;2.60;;;2.40;;
14125;SDS011;7141;49.484;11.242;2022-09-01T14:01:27;3.43;;;2.50;;
14125;SDS011;7141;49.484;11.242;2022-09-01T14:03:53;3.53;;;2.07;;
14125;SDS011;7141;49.484;11.242;2022-09-01T14:06:19;4.60;;;2.23;;
14125;SDS011;7141;49.484;11.242;2022-09-01T14:08:45;2.70;;;2.33;;
14125;SDS011;7141;49.484;11.242;2022-09-01T14:11:16;2.83;;;2.10;;
14125;SDS011;7141;49.484;11.242;2022-09-01T14:13:44;6.00;;;2.17;;
14125;SDS011;7141;49.484;11.242;2022-09-01T14:16:11;2.50;;;2.20;;
14125;SDS011;7141;49.484;11.242;2022-09-01T14:18:37;3.40;;;2.40;;
14125;SDS011;7141;49.484;11.242;2022-09-01T14:21:03;3.33;;;2.20;;
14125;SDS011;7141;49.484;11.242;2022-09-01T14:23:29;3.17;;;2.00;;
14125;SDS011;7141;49.484;11.242;2022-09-01T14:25:56;2.57;;;2.33;;
14125;SDS011;7141;49.484;11.242;2022-09-01T14:28:22;2.23;;;1.90;;
14125;SDS011;7141;49.484;11.242;2022-09-01T14:30:49;2.90;;;2.03;;
14125;SDS011;7141;49.484;11.242;2022-09-01T14:33:15;2.23;;;2.03;;
14125;SDS011;7141;49.484;11.242;2022-09-01T14:35:43;2.93;;;2.10;;
14125;SDS011;7141;49.484;11.242;2022-09-01T14:38:09;3.03;;;2.10;;
14125;SDS011;7141;49.484;11.242;2022-09-01T14:40:38;3.83;;;2.30;;
14125;SDS011;7141;49.484;11.242;2022-09-01T14:43:04;2.10;;;1.90;;
14125;SDS011;7141;49.484;11.242;2022-09-01T14:45:31;2.00;;;1.80;;
14125;SDS011;7141;49.484;11.242;2022-09-01T14:47:58;2.70;;;2.40;;
14125;SDS011;7141;49.484;11.242;2022-09-01T14:50:25;2.57;;;2.30;;
14125;SDS011;7141;49.484;11.242;2022-09-01T14:52:56;3.80;;;2.13;;
14125;SDS011;7141;49.484;11.242;2022-09-01T14:55:23;3.97;;;2.20;;
14125;SDS011;7141;49.484;11.242;2022-09-01T14:57:50;4.13;;;2.40;;
14125;SDS011;7141;49.484;11.242;2022-09-01T15:00:17;2.83;;;1.80;;
14125;SDS011;7141;49.484;11.242;2022-09-01T15:02:43;2.37;;;2.17;;
14125;SDS011;7141;49.484;11.242;2022-09-01T15:05:10;2.70;;;2.30;;
14125;SDS011;7141;49.484;11.242;2022-09-01T15:07:36;2.30;;;2.10;;
14125;SDS011;7141;49.484;11.242;2022-09-01T15:10:03;3.10;;;2.40;;
14125;SDS011;7141;49.484;11.242;2022-09-01T15:12:29;3.27;;;2.00;;
14125;SDS011;7141;49.484;11.242;2022-09-01T15:14:56;2.03;;;1.90;;
14125;SDS011;7141;49.484;11.242;2022-09-01T15:17:23;3.40;;;2.10;;
14125;SDS011;7141;49.484;11.242;2022-09-01T15:19:49;3.40;;;2.30;;
14125;SDS011;7141;49.484;11.242;2022-09-01T15:22:15;2.63;;;2.43;;
14125;SDS011;7141;49.484;11.242;2022-09-01T15:24:41;3.23;;;2.50;;
14125;SDS011;7141;49.484;11.242;2022-09-01T15:27:07;6.10;;;2.20;;
14125;SDS011;7141;49.484;11.242;2022-09-01T15:29:35;3.40;;;2.20;;
14125;SDS011;7141;49.484;11.242;2022-09-01T15:32:08;4.93;;;2.13;;
14125;SDS011;7141;49.484;11.242;2022-09-01T15:34:35;2.30;;;2.07;;
14125;SDS011;7141;49.484;11.242;2022-09-01T15:37:01;2.23;;;2.03;;
14125;SDS011;7141;49.484;11.242;2022-09-01T15:39:28;3.97;;;2.30;;
14125;SDS011;7141;49.484;11.242;2022-09-01T15:41:54;2.83;;;1.80;;
14125;SDS011;7141;49.484;11.242;2022-09-01T15:44:20;2.27;;;1.67;;
14125;SDS011;7141;49.484;11.242;2022-09-01T15:46:46;2.60;;;1.87;;
14125;SDS011;7141;49.484;11.242;2022-09-01T15:49:12;2.47;;;1.83;;
14125;SDS011;7141;49.484;11.242;2022-09-01T15:51:40;2.77;;;1.67;;
14125;SDS011;7141;49.484;11.242;2022-09-01T15:56:35;4.33;;;2.00;;
14125;SDS011;7141;49.484;11.242;2022-09-01T15:59:02;3.60;;;2.10;;
14125;SDS011;7141;49.484;11.242;2022-09-01T16:01:29;3.60;;;2.10;;
14125;SDS011;7141;49.484;11.242;2022-09-01T16:03:55;3.07;;;1.80;;
14125;SDS011;7141;49.484;11.242;2022-09-01T16:06:22;4.30;;;1.93;;
14125;SDS011;7141;49.484;11.242;2022-09-01T16:08:48;2.77;;;2.07;;